Time;durP1;ratioP1;P1;durP2;ratioP2;P2;SDS_P1;SDS_P2;PMS_P1;PMS_P2;Temp;Humidity;BMP_temperature;BMP_pressure;BME280_temperature;BME280_humidity;BME280_pressure;Samples;Min_cycle;Max_cycle;Signal;HPM_P1;HPM_P2
2023/12/20 00:00:19;;;;;;;;;;;;;;;9.82;98.58;100621.25;5033957;27;96756;-78
2023/12/20 00:02:46;;;;;;;17.67;8.82;;;;;;;9.66;100.00;100620.03;5027458;27;97123;-76
2023/12/20 00:05:13;;;;;;;5.30;4.80;;;;;;;9.36;100.00;100616.66;5027128;27;98763;-76
2023/12/20 00:07:40;;;;;;;5.13;4.63;;;;;;;9.44;100.00;100617.28;5021101;27;99541;-76
2023/12/20 00:10:07;;;;;;;4.30;4.00;;;;;;;9.44;100.00;100617.28;5025848;28;101546;-77
2023/12/20 00:12:35;;;;;;;3.90;3.35;;;;;;;9.05;100.00;100619.41;5020469;27;97283;-76
2023/12/20 00:15:01;;;;;;;3.95;3.53;;;;;;;9.24;100.00;100618.81;5028544;27;97386;-76
2023/12/20 00:17:28;;;;;;;3.58;3.28;;;;;;;8.82;100.00;100606.06;5029126;27;99001;-76
2023/12/20 00:19:54;;;;;;;4.07;3.78;;;;;;;9.27;100.00;100598.47;5024926;27;99243;-76
2023/12/20 00:22:20;;;;;;;4.82;3.38;;;;;;;9.26;100.00;100603.78;5028472;27;97136;-76
2023/12/20 00:24:47;;;;;;;5.10;4.60;;;;;;;9.59;100.00;100597.41;5023908;27;97113;-76
2023/12/20 00:27:13;;;;;;;4.43;4.00;;;;;;;9.61;100.00;100590.31;5033435;27;99439;-76
2023/12/20 00:29:42;;;;;;;3.13;2.83;;;;;;;9.21;100.00;100593.41;5024524;27;99813;-76
2023/12/20 00:32:09;;;;;;;4.68;3.83;;;;;;;9.65;100.00;100597.19;5025010;27;100250;-77
2023/12/20 00:34:35;;;;;;;6.32;3.88;;;;;;;9.99;98.73;100588.97;5023228;27;97386;-76
2023/12/20 00:37:02;;;;;;;3.55;3.25;;;;;;;9.60;99.72;100588.59;5028153;27;98799;-77
2023/12/20 00:39:28;;;;;;;4.13;2.67;;;;;;;9.58;100.00;100585.16;5026292;27;100786;-77
2023/12/20 00:41:55;;;;;;;4.05;3.65;;;;;;;9.86;100.00;100590.34;5023373;27;98835;-77
2023/12/20 00:44:21;;;;;;;4.00;3.47;;;;;;;9.85;100.00;100584.19;5034040;27;97188;-77
2023/12/20 00:46:49;;;;;;;3.53;3.22;;;;;;;10.03;98.67;100584.47;5029447;27;99292;-78
2023/12/20 00:49:15;;;;;;;4.05;3.40;;;;;;;9.91;98.52;100578.69;5022524;27;98961;-78
2023/12/20 00:51:42;;;;;;;3.60;3.30;;;;;;;9.97;99.47;100589.06;5022980;27;97233;-76
2023/12/20 00:54:09;;;;;;;3.65;3.35;;;;;;;9.76;99.30;100579.25;5032044;27;96874;-77
2023/12/20 00:56:36;;;;;;;3.88;3.55;;;;;;;10.25;97.48;100575.72;5023022;27;99365;-77
2023/12/20 00:59:02;;;;;;;4.20;3.90;;;;;;;10.06;97.63;100585.22;5022164;27;98726;-77
2023/12/20 01:01:28;;;;;;;4.15;3.72;;;;;;;9.82;99.46;100594.88;5020896;27;96749;-77
2023/12/20 01:03:56;;;;;;;3.80;3.50;;;;;;;9.52;100.00;100591.47;5023246;27;96796;-77
2023/12/20 01:06:22;;;;;;;3.88;3.47;;;;;;;9.58;100.00;100595.72;5016291;27;98873;-76
2023/12/20 01:08:49;;;;;;;4.03;3.63;;;;;;;9.86;100.00;100601.75;5023432;27;101676;-76
2023/12/20 01:11:15;;;;;;;4.15;3.80;;;;;;;10.07;99.20;100594.84;5018891;27;96821;-77
2023/12/20 01:13:42;;;;;;;4.43;4.00;;;;;;;9.91;98.83;100589.25;5022430;27;97392;-78
2023/12/20 01:16:11;;;;;;;4.10;3.70;;;;;;;9.36;100.00;100595.56;5027794;27;99082;-77
2023/12/20 01:18:38;;;;;;;4.18;3.80;;;;;;;9.49;100.00;100601.28;5022838;27;98305;-77
2023/12/20 01:21:06;;;;;;;5.65;4.95;;;;;;;9.66;100.00;100593.66;5018544;27;96724;-78
2023/12/20 01:23:33;;;;;;;4.50;4.10;;;;;;;9.72;100.00;100598.72;5023737;27;96783;-77
2023/12/20 01:25:59;;;;;;;4.80;4.28;;;;;;;9.33;100.00;100594.78;5028122;27;97812;-78
2023/12/20 01:28:26;;;;;;;4.45;4.05;;;;;;;9.46;100.00;100596.09;5020285;27;99092;-78
2023/12/20 01:30:53;;;;;;;4.90;4.40;;;;;;;9.60;100.00;100601.78;5019325;27;97760;-78
2023/12/20 01:33:19;;;;;;;5.43;4.50;;;;;;;9.44;100.00;100598.81;5021511;27;96829;-77
2023/12/20 01:35:46;;;;;;;5.13;3.92;;;;;;;9.33;100.00;100594.78;5016514;27;99180;-78
2023/12/20 01:38:18;;;;;;;4.57;3.80;;;;;;;9.75;100.00;100597.78;5026732;27;99044;-78
2023/12/20 01:40:44;;;;;;;6.03;4.50;;;;;;;9.77;100.00;100595.94;5020385;28;96848;-77
2023/12/20 01:43:12;;;;;;;4.28;3.80;;;;;;;9.68;100.00;100594.47;5017259;27;96944;-78
2023/12/20 01:45:38;;;;;;;3.92;3.63;;;;;;;9.83;100.00;100585.19;5021255;27;97685;-76
2023/12/20 01:48:06;;;;;;;4.30;3.90;;;;;;;9.74;100.00;100583.72;5024496;27;98172;-76
2023/12/20 01:50:34;;;;;;;4.35;3.95;;;;;;;9.75;100.00;100580.16;5025039;27;101323;-76
2023/12/20 01:53:01;;;;;;;4.30;3.63;;;;;;;9.95;99.83;100580.31;5032814;27;99475;-76
2023/12/20 01:55:32;;;;;;;4.22;3.83;;;;;;;9.91;100.00;100589.25;5023466;27;97395;-78
2023/12/20 01:58:00;;;;;;;4.82;4.22;;;;;;;10.56;97.75;100593.09;5030536;27;99472;-77
2023/12/20 02:00:28;;;;;;;4.25;3.85;;;;;;;10.85;95.46;100589.31;5032292;27;96790;-78
2023/12/20 02:02:55;;;;;;;5.63;4.20;;;;;;;10.93;94.25;100593.41;5033462;27;97006;-77
2023/12/20 02:05:23;;;;;;;4.25;3.85;;;;;;;11.13;94.09;100589.97;5026699;27;98299;-75
2023/12/20 02:07:49;;;;;;;3.97;3.58;;;;;;;11.34;92.01;100582.94;5026651;27;98489;-76
2023/12/20 02:10:17;;;;;;;5.20;2.88;;;;;;;11.50;89.82;100576.94;5024798;27;96887;-76
2023/12/20 02:12:44;;;;;;;4.63;3.33;;;;;;;11.54;89.12;100573.25;5025649;27;96821;-78
2023/12/20 02:15:11;;;;;;;4.43;3.25;;;;;;;11.61;88.47;100571.22;5029502;27;99041;-76
2023/12/20 02:17:39;;;;;;;2.65;2.28;;;;;;;11.33;88.29;100574.16;5037263;27;97826;-77
2023/12/20 02:20:07;;;;;;;3.40;2.55;;;;;;;10.81;92.33;100577.16;5031598;27;96828;-77
2023/12/20 02:22:35;;;;;;;3.45;3.15;;;;;;;10.67;93.55;100572.41;5032266;27;96880;-76
2023/12/20 02:25:01;;;;;;;3.03;2.75;;;;;;;10.68;93.58;100561.78;5033092;27;99995;-76
2023/12/20 02:27:29;;;;;;;4.45;2.80;;;;;;;10.65;93.99;100567.16;5038239;27;98771;-76
2023/12/20 02:29:56;;;;;;;2.55;2.33;;;;;;;10.25;96.08;100561.66;5027832;27;96725;-76
2023/12/20 02:32:25;;;;;;;2.95;2.65;;;;;;;10.30;96.65;100567.66;5031720;27;96794;-76
2023/12/20 02:34:52;;;;;;;3.20;2.90;;;;;;;10.21;96.68;100575.91;5027966;27;98246;-76
2023/12/20 02:37:18;;;;;;;2.90;2.60;;;;;;;9.87;97.78;100576.22;5036479;27;99883;-76
2023/12/20 02:39:46;;;;;;;2.95;2.70;;;;;;;9.98;98.38;100564.38;5031087;27;98307;-77
2023/12/20 02:42:13;;;;;;;3.28;2.97;;;;;;;10.19;97.90;100556.63;5021678;27;96991;-76
2023/12/20 02:44:39;;;;;;;4.28;3.65;;;;;;;10.36;96.14;100559.50;5031366;27;97888;-76
2023/12/20 02:47:05;;;;;;;4.18;3.78;;;;;;;10.34;95.03;100563.97;5032326;27;100999;-77
2023/12/20 02:49:32;;;;;;;4.63;3.90;;;;;;;10.55;94.69;100571.09;5035809;27;97136;-77
2023/12/20 02:51:58;;;;;;;5.70;4.07;;;;;;;10.83;93.34;100572.69;5026469;27;97169;-77
2023/12/20 02:54:25;;;;;;;6.55;4.18;;;;;;;10.83;92.24;100564.75;5032557;27;100096;-76
2023/12/20 02:56:52;;;;;;;6.13;4.65;;;;;;;10.59;92.72;100572.69;5022266;27;99262;-76
2023/12/20 02:59:19;;;;;;;4.78;4.25;;;;;;;10.58;93.39;100568.31;5031107;27;96756;-76
2023/12/20 03:01:46;;;;;;;5.10;4.60;;;;;;;10.80;92.20;100571.00;5033182;27;96768;-76
2023/12/20 03:04:13;;;;;;;7.82;5.00;;;;;;;10.77;91.72;100560.53;5020213;27;99358;-76
2023/12/20 03:06:40;;;;;;;5.65;4.60;;;;;;;10.69;92.85;100568.78;5024554;27;102613;-76
2023/12/20 03:09:06;;;;;;;5.05;4.15;;;;;;;10.87;90.94;100577.78;5032035;27;96833;-76
2023/12/20 03:11:33;;;;;;;6.63;3.88;;;;;;;10.87;90.28;100569.00;5025213;27;96861;-76
2023/12/20 03:14:00;;;;;;;6.22;4.07;;;;;;;11.15;89.02;100580.19;5025620;27;99226;-77
2023/12/20 03:16:27;;;;;;;12.23;3.90;;;;;;;11.31;88.32;100581.28;5032249;27;99766;-77
2023/12/20 03:18:53;;;;;;;5.25;3.75;;;;;;;11.28;87.16;100573.47;5029418;27;97273;-77
2023/12/20 03:21:20;;;;;;;9.05;3.58;;;;;;;11.30;86.77;100582.19;5026383;27;97102;-78
2023/12/20 03:23:46;;;;;;;9.30;3.42;;;;;;;11.71;84.87;100583.13;5027271;27;97054;-76
2023/12/20 03:26:13;;;;;;;5.53;3.17;;;;;;;11.43;85.25;100580.75;5025742;27;98852;-76
2023/12/20 03:28:39;;;;;;;7.20;2.92;;;;;;;11.43;85.43;100575.47;5027240;27;96798;-75
2023/12/20 03:31:07;;;;;;;8.43;3.30;;;;;;;11.44;84.87;100579.84;5022093;27;96888;-77
2023/12/20 03:33:34;;;;;;;4.82;2.80;;;;;;;11.78;83.23;100581.09;5029126;27;99332;-76
2023/12/20 03:36:00;;;;;;;7.13;2.67;;;;;;;11.84;82.73;100579.06;5030452;27;97317;-76
2023/12/20 03:38:26;;;;;;;7.28;2.17;;;;;;;11.86;82.24;100576.34;5026195;27;97231;-76
2023/12/20 03:40:53;;;;;;;6.78;2.55;;;;;;;11.88;81.87;100574.50;5023733;27;96918;-78
2023/12/20 03:43:19;;;;;;;8.68;2.00;;;;;;;11.95;81.75;100583.88;5020189;27;97763;-76
2023/12/20 03:45:46;;;;;;;9.25;1.92;;;;;;;11.77;82.32;100576.72;5025286;27;98830;-79
2023/12/20 03:48:13;;;;;;;4.05;1.60;;;;;;;11.42;82.64;100571.09;5026016;27;97059;-76
2023/12/20 03:50:40;;;;;;;7.13;1.63;;;;;;;11.17;84.47;100573.03;5033887;27;96793;-77
2023/12/20 03:53:06;;;;;;;10.65;1.75;;;;;;;11.34;83.97;100567.94;5028794;27;98949;-77
2023/12/20 03:55:32;;;;;;;10.52;1.20;;;;;;;11.31;83.32;100570.69;5027352;27;99000;-76
2023/12/20 03:57:59;;;;;;;9.05;1.60;;;;;;;11.57;82.72;100578.41;5028816;27;96742;-76
2023/12/20 04:00:25;;;;;;;10.85;2.30;;;;;;;11.33;82.96;100560.06;5022249;28;97043;-76
2023/12/20 04:02:52;;;;;;;13.48;2.70;;;;;;;11.15;83.73;100556.41;5032267;27;100862;-77
2023/12/20 04:05:20;;;;;;;9.15;1.65;;;;;;;11.00;83.81;100557.00;5017533;27;98816;-77
2023/12/20 04:07:47;;;;;;;13.52;2.28;;;;;;;11.09;83.16;100559.28;5023156;27;97003;-78
2023/12/20 04:10:13;;;;;;;7.25;1.48;;;;;;;11.36;82.00;100559.91;5028199;27;96818;-78
2023/12/20 04:12:40;;;;;;;8.77;1.60;;;;;;;11.35;81.90;100543.22;5023343;27;98993;-77
2023/12/20 04:15:09;;;;;;;11.57;1.63;;;;;;;10.83;82.70;100541.78;5030385;27;101093;-77
2023/12/20 04:17:35;;;;;;;11.80;1.60;;;;;;;11.17;81.99;100549.25;5031810;27;96984;-77
2023/12/20 04:20:02;;;;;;;10.20;1.92;;;;;;;11.10;82.30;100542.47;5024746;27;97096;-77
2023/12/20 04:22:30;;;;;;;12.63;1.75;;;;;;;10.76;82.77;100532.41;5021621;27;99327;-77
2023/12/20 04:24:56;;;;;;;6.75;1.38;;;;;;;10.70;83.43;100538.78;5025193;27;101321;-78
2023/12/20 04:27:22;;;;;;;10.13;1.85;;;;;;;10.53;84.43;100540.38;5020375;27;97129;-76
2023/12/20 04:29:49;;;;;;;12.73;1.67;;;;;;;10.56;84.07;100533.19;5020112;27;100496;-76
2023/12/20 04:32:15;;;;;;;10.35;1.73;;;;;;;10.57;83.83;100531.38;5027291;27;99442;-77
2023/12/20 04:34:42;;;;;;;9.63;1.83;;;;;;;10.70;83.60;100530.84;5020796;27;98915;-76
2023/12/20 04:37:08;;;;;;;14.82;1.73;;;;;;;10.75;82.28;100543.91;5026145;27;99298;-77
2023/12/20 04:39:36;;;;;;;6.95;1.55;;;;;;;10.44;83.55;100541.56;5021370;27;96792;-77
2023/12/20 04:42:02;;;;;;;11.40;2.05;;;;;;;10.19;85.60;100548.69;5027517;27;98984;-77
2023/12/20 04:44:29;;;;;;;13.90;2.72;;;;;;;10.18;84.97;100542.53;5018249;28;99616;-77
2023/12/20 04:46:56;;;;;;;16.65;2.30;;;;;;;9.82;87.68;100542.09;5016085;27;96922;-77
2023/12/20 04:49:22;;;;;;;7.55;1.27;;;;;;;9.56;88.33;100548.28;5023199;27;96917;-77
2023/12/20 04:51:49;;;;;;;9.50;1.63;;;;;;;9.33;89.35;100545.53;5026123;27;99307;-78
2023/12/20 04:54:15;;;;;;;8.45;1.75;;;;;;;9.28;90.24;100536.06;5014694;27;98826;-77
2023/12/20 04:56:43;;;;;;;9.18;1.55;;;;;;;9.36;90.03;100536.69;5028526;27;97275;-77
2023/12/20 04:59:09;;;;;;;9.23;2.58;;;;;;;9.80;88.26;100535.13;5025439;27;97052;-77
2023/12/20 05:01:36;;;;;;;12.98;1.90;;;;;;;9.83;87.04;100542.94;5029151;27;99533;-77
2023/12/20 05:04:02;;;;;;;16.98;1.90;;;;;;;9.76;87.30;100550.22;5027162;27;98727;-77
2023/12/20 05:06:28;;;;;;;10.48;2.03;;;;;;;9.80;87.05;100541.28;5023417;27;96831;-77
2023/12/20 05:08:55;;;;;;;14.27;1.75;;;;;;;9.52;88.35;100551.06;5021702;27;98417;-76
2023/12/20 05:11:21;;;;;;;14.65;2.40;;;;;;;9.75;88.10;100556.41;5031509;27;99291;-78
2023/12/20 05:13:49;;;;;;;9.00;1.35;;;;;;;9.69;87.31;100546.06;5028613;27;99142;-77
2023/12/20 05:16:17;;;;;;;12.02;1.60;;;;;;;9.70;87.69;100553.09;5025776;27;97262;-77
2023/12/20 05:18:44;;;;;;;9.25;1.20;;;;;;;8.92;90.68;100548.69;5033537;27;96749;-77
2023/12/20 05:21:10;;;;;;;17.65;2.17;;;;;;;8.68;92.68;100548.53;5024792;27;98919;-76
2023/12/20 05:23:36;;;;;;;7.63;2.20;;;;;;;8.62;91.55;100548.72;5020575;27;101122;-76
2023/12/20 05:26:03;;;;;;;7.90;1.45;;;;;;;8.58;93.08;100562.03;5031263;27;96874;-76
2023/12/20 05:28:30;;;;;;;12.40;1.58;;;;;;;8.53;92.38;100553.41;5022500;27;97150;-76
2023/12/20 05:30:57;;;;;;;12.45;2.00;;;;;;;8.58;91.64;100562.03;5036493;27;101656;-76
2023/12/20 05:33:24;;;;;;;13.55;2.22;;;;;;;8.71;90.35;100558.97;5029451;27;98768;-76
2023/12/20 05:35:51;;;;;;;9.60;1.55;;;;;;;8.83;90.75;100554.22;5022941;27;97061;-75
2023/12/20 05:38:17;;;;;;;11.90;1.30;;;;;;;8.77;90.79;100547.38;5026697;27;96732;-74
2023/12/20 05:40:44;;;;;;;15.75;1.48;;;;;;;8.71;90.99;100547.59;5019300;27;97794;-76
2023/12/20 05:43:10;;;;;;;13.23;1.92;;;;;;;8.16;92.39;100550.94;5026469;27;98983;-76
2023/12/20 05:45:37;;;;;;;8.13;1.10;;;;;;;8.27;93.27;100547.09;5029311;27;97447;-76
2023/12/20 05:48:05;;;;;;;10.18;1.17;;;;;;;8.31;93.46;100540.03;5032798;27;96758;-75
2023/12/20 05:50:32;;;;;;;15.45;1.40;;;;;;;8.10;93.22;100549.38;5027067;27;99430;-75
2023/12/20 05:52:58;;;;;;;15.65;1.60;;;;;;;8.11;94.85;100542.34;5028011;27;97723;-75
2023/12/20 05:55:24;;;;;;;11.90;1.85;;;;;;;7.82;94.81;100543.13;5022031;27;96723;-75
2023/12/20 05:57:51;;;;;;;16.05;1.90;;;;;;;7.79;95.81;100540.59;5034449;27;97023;-78
2023/12/20 06:00:18;;;;;;;12.98;1.20;;;;;;;8.12;93.86;100544.94;5022088;27;98405;-77
2023/12/20 06:02:45;;;;;;;12.27;1.33;;;;;;;8.33;92.87;100539.09;5029309;27;98767;-78
2023/12/20 06:05:13;;;;;;;8.75;1.92;;;;;;;8.17;93.34;100536.88;5030994;27;96906;-78
2023/12/20 06:07:39;;;;;;;12.75;1.67;;;;;;;8.32;92.74;100529.44;5032178;27;96824;-78
2023/12/20 06:10:07;;;;;;;12.45;1.52;;;;;;;7.68;94.83;100529.53;5026258;27;99351;-78
2023/12/20 06:12:35;;;;;;;11.13;1.40;;;;;;;7.67;95.33;100527.78;5028138;27;98856;-78
2023/12/20 06:15:02;;;;;;;19.83;2.00;;;;;;;7.94;94.63;100527.88;5024344;27;97076;-78
2023/12/20 06:17:30;;;;;;;14.50;1.58;;;;;;;8.02;94.10;100528.53;5031250;27;97122;-78
2023/12/20 06:19:56;;;;;;;14.75;2.00;;;;;;;7.86;94.31;100519.34;5018236;27;98862;-78
2023/12/20 06:22:24;;;;;;;19.73;1.92;;;;;;;7.87;95.20;100522.84;5021426;27;98851;-78
2023/12/20 06:24:51;;;;;;;9.27;1.40;;;;;;;7.95;94.53;100524.34;5025118;27;96765;-78
2023/12/20 06:27:17;;;;;;;7.47;1.60;;;;;;;8.10;92.53;100525.69;5019985;27;97122;-78
2023/12/20 06:29:44;;;;;;;7.45;1.33;;;;;;;7.46;95.17;100531.84;5031806;27;98865;-78
2023/12/20 06:32:11;;;;;;;10.40;1.30;;;;;;;7.70;95.86;100535.56;5021148;27;98816;-78
2023/12/20 06:34:38;;;;;;;12.95;1.38;;;;;;;7.78;95.13;100533.59;5027878;27;96774;-77
2023/12/20 06:37:05;;;;;;;11.75;1.20;;;;;;;7.49;96.09;100537.00;5032785;27;96851;-79
2023/12/20 06:39:33;;;;;;;10.75;1.50;;;;;;;7.49;96.83;100539.63;5033030;27;99266;-78
2023/12/20 06:42:00;;;;;;;9.48;1.27;;;;;;;7.38;97.29;100539.94;5020216;27;99072;-77
2023/12/20 06:44:27;;;;;;;10.80;1.88;;;;;;;7.42;97.30;100527.56;5024969;27;97033;-76
2023/12/20 06:46:53;;;;;;;8.25;1.35;;;;;;;7.44;96.76;100528.38;5024252;27;96915;-76
2023/12/20 06:49:20;;;;;;;13.05;2.25;;;;;;;7.83;95.95;100529.06;5021933;27;98896;-75
2023/12/20 06:51:46;;;;;;;11.38;2.83;;;;;;;7.58;95.60;100523.63;5026054;27;99120;-76
2023/12/20 06:54:13;;;;;;;9.00;1.55;;;;;;;7.52;96.93;100527.28;5032409;27;96756;-75
2023/12/20 06:56:41;;;;;;;11.20;1.60;;;;;;;7.49;97.83;100524.72;5022460;27;97919;-76
2023/12/20 06:59:07;;;;;;;8.35;1.58;;;;;;;7.34;98.14;100530.41;5018309;27;99031;-75
2023/12/20 07:01:34;;;;;;;11.90;1.90;;;;;;;7.37;98.97;100525.06;5025547;27;98418;-74
2023/12/20 07:04:00;;;;;;;13.93;1.77;;;;;;;7.36;96.97;100510.19;5017187;27;96768;-75
2023/12/20 07:06:26;;;;;;;11.30;3.30;;;;;;;7.67;97.01;100509.38;5030841;27;97146;-74
2023/12/20 07:08:53;;;;;;;12.43;1.65;;;;;;;7.67;95.62;100501.50;5022723;27;97611;-74
2023/12/20 07:11:19;;;;;;;7.75;1.45;;;;;;;7.21;97.96;100526.38;5025830;27;101527;-75
2023/12/20 07:13:47;;;;;;;9.00;1.83;;;;;;;7.33;99.31;100519.91;5030270;27;96805;-74
2023/12/20 07:16:14;;;;;;;10.07;1.60;;;;;;;7.52;97.17;100513.28;5029410;27;97124;-74
2023/12/20 07:18:40;;;;;;;12.88;1.85;;;;;;;7.71;96.01;100514.50;5023522;27;100001;-75
2023/12/20 07:21:09;;;;;;;8.70;2.70;;;;;;;7.69;95.37;100508.41;5018692;27;99110;-75
2023/12/20 07:23:35;;;;;;;20.88;4.93;;;;;;;7.45;96.75;100520.47;5025996;27;96806;-76
2023/12/20 07:26:02;;;;;;;8.40;1.20;;;;;;;7.23;96.89;100516.66;5023675;27;97404;-76
2023/12/20 07:28:28;;;;;;;15.98;3.53;;;;;;;7.36;98.46;100507.56;5021475;27;99240;-76
2023/12/20 07:30:56;;;;;;;6.32;1.27;;;;;;;7.67;95.87;100512.00;5020406;27;98646;-76
2023/12/20 07:33:22;;;;;;;8.77;2.10;;;;;;;8.04;94.54;100507.44;5029924;27;100060;-76
2023/12/20 07:35:49;;;;;;;12.80;1.80;;;;;;;8.18;92.80;100501.78;5023547;27;97130;-75
2023/12/20 07:38:15;;;;;;;15.77;1.95;;;;;;;7.94;93.97;100503.34;5026240;27;99051;-77
2023/12/20 07:40:42;;;;;;;8.57;2.00;;;;;;;7.49;95.38;100498.44;5030306;27;99181;-75
2023/12/20 07:43:09;;;;;;;12.80;2.28;;;;;;;7.42;96.50;100507.38;5028575;27;96771;-75
2023/12/20 07:45:35;;;;;;;10.38;1.70;;;;;;;8.10;93.63;100499.34;5024506;27;97140;-75
2023/12/20 07:48:04;;;;;;;16.88;2.05;;;;;;;7.74;94.04;100500.41;5034264;27;99298;-76
2023/12/20 07:50:31;;;;;;;19.95;1.90;;;;;;;7.77;95.16;100502.94;5030748;27;98980;-71
2023/12/20 07:52:59;;;;;;;11.57;1.77;;;;;;;7.67;94.58;100497.09;5032111;27;96644;-71
2023/12/20 07:55:25;;;;;;;8.10;1.50;;;;;;;7.52;95.12;100490.47;5028652;27;96957;-75
2023/12/20 07:57:52;;;;;;;8.05;1.45;;;;;;;7.50;95.42;100499.31;5029091;27;98168;-74
2023/12/20 08:00:19;;;;;;;11.65;1.80;;;;;;;8.05;93.23;100498.63;5029668;27;100942;-75
2023/12/20 08:02:46;;;;;;;11.45;1.60;;;;;;;7.57;94.61;100501.72;5028983;27;96740;-75
2023/12/20 08:05:14;;;;;;;11.02;2.85;;;;;;;7.46;94.13;100495.91;5030403;27;97095;-75
2023/12/20 08:07:44;;;;;;;10.55;1.40;;;;;;;7.55;94.28;100497.41;5031725;27;102264;-76
2023/12/20 08:10:11;;;;;;;14.00;2.47;;;;;;;7.77;95.14;100495.91;5031076;27;99085;-75
2023/12/20 08:12:39;;;;;;;18.80;2.35;;;;;;;8.23;92.26;100498.09;5019830;27;97080;-75
2023/12/20 08:15:07;;;;;;;15.80;1.45;;;;;;;7.73;92.68;100501.31;5030461;27;96669;-75
2023/12/20 08:17:33;;;;;;;14.88;2.30;;;;;;;7.91;93.51;100508.69;5029450;27;98834;-75
2023/12/20 08:20:00;;;;;;;8.98;1.60;;;;;;;7.62;94.48;100509.47;5025442;27;99199;-75
2023/12/20 08:22:27;;;;;;;7.97;1.38;;;;;;;7.41;95.00;100510.06;5025668;27;100434;-75
2023/12/20 08:24:54;;;;;;;8.57;1.60;;;;;;;7.22;96.27;100504.41;5022398;27;96810;-76
2023/12/20 08:27:20;;;;;;;11.38;1.58;;;;;;;7.88;94.00;100501.72;5020048;27;101968;-75
2023/12/20 08:29:47;;;;;;;7.90;1.30;;;;;;;8.03;91.58;100500.44;5022355;27;97556;-75
2023/12/20 08:32:14;;;;;;;10.18;1.67;;;;;;;8.12;91.63;100504.59;5015490;27;96726;-75
2023/12/20 08:34:40;;;;;;;11.77;1.70;;;;;;;8.61;89.15;100503.97;5022844;27;96986;-76
2023/12/20 08:37:07;;;;;;;10.70;1.75;;;;;;;7.81;92.00;100491.47;5022219;27;98910;-76
2023/12/20 08:39:35;;;;;;;11.77;1.55;;;;;;;8.62;89.66;100490.78;5023969;27;101414;-75
2023/12/20 08:42:01;;;;;;;15.05;2.10;;;;;;;9.02;87.42;100485.06;5027551;27;96811;-76
2023/12/20 08:44:28;;;;;;;7.72;1.38;;;;;;;8.97;87.32;100487.00;5015909;27;97263;-76
2023/12/20 08:46:56;;;;;;;9.85;1.48;;;;;;;8.26;89.42;100490.13;5032221;27;98147;-75
2023/12/20 08:49:23;;;;;;;9.95;1.23;;;;;;;7.87;92.51;100484.25;5020123;27;98251;-75
2023/12/20 08:51:49;;;;;;;15.15;1.60;;;;;;;8.41;90.31;100475.63;5023528;27;96767;-77
2023/12/20 08:54:17;;;;;;;9.88;1.20;;;;;;;8.13;91.33;100486.13;5031898;27;97599;-76
2023/12/20 08:56:44;;;;;;;14.88;2.28;;;;;;;7.89;92.28;100486.81;5017044;27;100831;-76
2023/12/20 08:59:11;;;;;;;9.00;1.20;;;;;;;8.25;90.56;100479.63;5030719;27;97772;-75
2023/12/20 09:01:38;;;;;;;9.77;1.55;;;;;;;8.24;90.13;100484.03;5011236;27;96750;-76
2023/12/20 09:04:06;;;;;;;10.55;1.45;;;;;;;7.61;92.90;100477.06;5029887;27;97714;-75
2023/12/20 09:06:32;;;;;;;14.05;2.15;;;;;;;8.24;92.41;100476.13;5025786;27;99411;-77
2023/12/20 09:08:59;;;;;;;10.45;1.58;;;;;;;8.83;88.27;100468.16;5027338;27;98761;-77
2023/12/20 09:11:25;;;;;;;15.45;1.83;;;;;;;8.83;87.16;100475.19;5024508;27;97011;-75
2023/12/20 09:13:53;;;;;;;11.40;1.30;;;;;;;7.94;89.64;100466.53;5029925;27;97268;-76
2023/12/20 09:16:19;;;;;;;11.20;1.70;;;;;;;7.91;91.80;100471.84;5024207;27;99390;-76
2023/12/20 09:18:46;;;;;;;13.93;1.88;;;;;;;8.45;90.73;100469.38;5030938;27;99213;-75
2023/12/20 09:21:12;;;;;;;9.73;2.05;;;;;;;8.12;89.55;100463.34;5022748;28;97152;-74
2023/12/20 09:23:38;;;;;;;12.88;1.70;;;;;;;8.08;91.07;100461.69;5027447;27;96782;-75
2023/12/20 09:26:05;;;;;;;5.47;1.45;;;;;;;7.90;91.56;100451.72;5020669;27;99083;-76
2023/12/20 09:28:36;;;;;;;7.15;1.55;;;;;;;7.75;92.55;100463.53;5016406;27;99074;-76
2023/12/20 09:31:05;;;;;;;11.75;1.42;;;;;;;8.49;88.90;100454.34;5029034;27;97047;-75
2023/12/20 09:33:31;;;;;;;10.35;1.45;;;;;;;8.55;89.07;100451.50;5021023;27;96761;-76
2023/12/20 09:35:58;;;;;;;13.27;1.88;;;;;;;8.59;87.33;100443.47;5022746;28;101193;-75
2023/12/20 09:38:24;;;;;;;12.48;1.70;;;;;;;8.36;88.04;100453.84;5026663;27;98912;-75
2023/12/20 09:40:51;;;;;;;12.75;2.03;;;;;;;8.15;90.25;100444.81;5027604;27;97654;-76
2023/12/20 09:43:20;;;;;;;13.98;1.63;;;;;;;8.36;87.92;100441.56;5022007;27;97674;-75
2023/12/20 09:45:49;;;;;;;8.55;1.65;;;;;;;8.48;86.62;100456.09;5026886;27;99003;-76
2023/12/20 09:48:18;;;;;;;14.98;1.80;;;;;;;8.26;87.76;100444.50;5023866;27;100310;-75
2023/12/20 09:50:45;;;;;;;16.33;1.92;;;;;;;8.51;87.22;100449.88;5022697;27;96757;-75
2023/12/20 09:53:16;;;;;;;12.10;1.65;;;;;;;8.60;86.37;100444.34;5022762;27;97237;-76
2023/12/20 09:55:43;;;;;;;15.98;2.33;;;;;;;8.20;87.39;100434.16;5028870;27;98735;-75
2023/12/20 09:58:09;;;;;;;12.15;2.00;;;;;;;8.43;87.13;100449.25;5027875;27;97587;-75
2023/12/20 10:00:36;;;;;;;10.48;1.80;;;;;;;8.47;86.20;100448.28;5020792;27;97071;-75
2023/12/20 10:03:04;;;;;;;10.50;2.25;;;;;;;8.17;88.03;100437.75;5019346;28;96940;-76
2023/12/20 10:05:33;;;;;;;8.50;1.58;;;;;;;8.01;88.93;100431.19;5021835;27;98877;-75
2023/12/20 10:08:00;;;;;;;15.10;2.80;;;;;;;8.04;88.24;100420.59;5027394;27;99584;-76
2023/12/20 10:10:27;;;;;;;14.57;1.98;;;;;;;7.73;90.09;100433.81;5024408;27;97410;-76
2023/12/20 10:13:04;;;;;;;10.80;1.30;;;;;;;7.93;89.99;100428.81;5029507;27;97282;-76
2023/12/20 10:15:31;;;;;;;11.88;2.60;;;;;;;7.79;89.08;100414.34;5028119;27;98212;-75
2023/12/20 10:17:58;;;;;;;11.77;1.95;;;;;;;8.47;87.65;100416.69;5027793;27;97677;-75
2023/12/20 10:20:24;;;;;;;14.63;1.88;;;;;;;8.62;85.36;100413.53;5024301;27;97416;-75
2023/12/20 10:22:53;;;;;;;17.73;2.33;;;;;;;8.47;85.83;100404.34;5026082;27;96897;-75
2023/12/20 10:25:20;;;;;;;12.13;1.77;;;;;;;8.58;86.05;100394.34;5026001;27;99413;-76
2023/12/20 10:27:46;;;;;;;9.00;1.40;;;;;;;8.47;85.52;100406.16;5019430;28;98863;-76
2023/12/20 10:30:14;;;;;;;16.08;2.00;;;;;;;8.57;85.54;100391.75;5027794;27;96804;-75
2023/12/20 10:32:40;;;;;;;13.82;1.60;;;;;;;8.69;84.70;100391.34;5024296;27;96772;-75
2023/12/20 10:35:07;;;;;;;8.18;1.38;;;;;;;8.99;83.50;100379.75;5023842;27;97814;-75
2023/12/20 10:37:36;;;;;;;15.23;1.58;;;;;;;9.09;82.47;100388.22;5021297;28;100070;-75
2023/12/20 10:40:05;;;;;;;10.98;1.70;;;;;;;8.57;84.23;100383.84;5025682;27;97260;-74
2023/12/20 10:42:33;;;;;;;15.38;1.80;;;;;;;8.83;83.48;100365.41;5027611;27;97105;-75
2023/12/20 10:45:00;;;;;;;18.70;2.08;;;;;;;8.61;84.05;100364.38;5024061;27;98902;-76
2023/12/20 10:47:27;;;;;;;18.13;2.40;;;;;;;8.72;83.89;100367.53;5021026;27;99613;-76
2023/12/20 10:49:53;;;;;;;8.30;2.00;;;;;;;8.58;84.60;100352.22;5029081;28;96895;-76
2023/12/20 10:52:23;;;;;;;12.00;1.90;;;;;;;8.82;84.04;100354.91;5022155;27;96782;-76
2023/12/20 10:54:50;;;;;;;8.90;1.77;;;;;;;8.87;83.17;100350.34;5021872;27;101578;-76
2023/12/20 10:57:19;;;;;;;8.88;2.03;;;;;;;8.91;82.77;100344.06;5022310;27;97881;-75
2023/12/20 10:59:47;;;;;;;14.30;1.83;;;;;;;8.93;83.41;100350.13;5025284;27;96780;-76
2023/12/20 11:02:14;;;;;;;9.23;1.55;;;;;;;8.97;82.09;100333.31;5029673;27;97205;-76
2023/12/20 11:04:49;;;;;;;9.68;1.85;;;;;;;8.53;83.74;100327.81;5024284;27;98949;-74
2023/12/20 11:07:24;;;;;;;12.00;1.80;;;;;;;8.89;82.90;100324.81;5028437;27;101741;-75
2023/12/20 11:10:00;;;;;;;10.38;1.55;;;;;;;8.79;83.15;100327.75;5026805;27;96832;-73
2023/12/20 11:12:37;;;;;;;10.45;2.03;;;;;;;8.53;85.16;100319.03;5026503;27;97585;-74
2023/12/20 11:15:04;;;;;;;15.32;1.90;;;;;;;8.61;87.10;100317.84;5027025;27;98978;-74
2023/12/20 11:17:32;;;;;;;15.48;1.70;;;;;;;8.20;89.09;100311.31;5032820;27;98201;-73
2023/12/20 11:20:07;;;;;;;11.20;1.60;;;;;;;8.61;88.56;100314.34;5023155;27;97516;-74
2023/12/20 11:22:35;;;;;;;16.85;2.17;;;;;;;9.39;84.72;100296.59;5031555;27;97013;-75
2023/12/20 11:25:05;;;;;;;9.50;1.38;;;;;;;9.40;83.34;100301.81;5026747;27;100465;-74